Time;durP1;ratioP1;P1;durP2;ratioP2;P2;SDS_P1;SDS_P2;PMS_P1;PMS_P2;Temp;Humidity;BMP_temperature;BMP_pressure;BME280_temperature;BME280_humidity;BME280_pressure;Samples;Min_cycle;Max_cycle;Signal;HPM_P1;HPM_P2
2022/01/03 00:01:51;;;;;;;659.85;170.25;;;;;;;0.64;100.00;101399.94;5028981;28;20057;-79
2022/01/03 00:04:18;;;;;;;531.67;153.25;;;;;;;0.70;100.00;101399.44;5031624;28;20586;-79
2022/01/03 00:06:45;;;;;;;446.17;138.35;;;;;;;0.68;100.00;101389.06;5034611;28;20107;-79
2022/01/03 00:09:13;;;;;;;321.75;101.53;;;;;;;0.66;100.00;101390.16;5031341;28;20042;-79
2022/01/03 00:11:41;;;;;;;272.30;90.72;;;;;;;0.67;100.00;101371.75;5031359;28;20115;-80
2022/01/03 00:14:08;;;;;;;262.60;86.72;;;;;;;0.62;100.00;101373.88;5031976;28;20049;-79
2022/01/03 00:16:35;;;;;;;295.10;89.05;;;;;;;0.59;100.00;101375.94;5033155;28;20073;-80
2022/01/03 00:19:02;;;;;;;259.90;83.25;;;;;;;0.56;100.00;101368.34;5034186;28;20053;-79
2022/01/03 00:21:34;;;;;;;266.13;75.65;;;;;;;0.53;100.00;101356.34;5028910;28;20489;-77
2022/01/03 00:24:07;;;;;;;315.42;87.20;;;;;;;0.57;100.00;101360.34;5032363;28;20119;-77
2022/01/03 00:26:35;;;;;;;292.63;86.75;;;;;;;0.53;100.00;101345.88;5030498;28;20132;-79
2022/01/03 00:29:11;;;;;;;229.45;86.07;;;;;;;0.56;100.00;101337.78;5030407;28;20456;-79
2022/01/03 00:31:42;;;;;;;208.82;79.57;;;;;;;0.58;100.00;101320.22;5031770;28;20437;-77
2022/01/03 00:34:10;;;;;;;170.93;67.93;;;;;;;0.66;100.00;101317.75;5034340;28;20057;-79
2022/01/03 00:36:38;;;;;;;190.93;66.30;;;;;;;0.42;100.00;101312.78;5028821;28;20053;-78
2022/01/03 00:39:09;;;;;;;199.40;71.88;;;;;;;0.62;100.00;101315.53;5031515;28;20045;-79
2022/01/03 00:41:38;;;;;;;245.05;80.40;;;;;;;0.57;100.00;101302.00;5028135;28;20127;-79
2022/01/03 00:44:08;;;;;;;213.25;75.55;;;;;;;0.53;100.00;101301.44;5033430;28;20045;-78
2022/01/03 00:46:35;;;;;;;214.95;77.45;;;;;;;0.63;100.00;101294.50;5030916;28;20123;-77
2022/01/03 00:49:03;;;;;;;143.52;57.40;;;;;;;0.54;100.00;101294.44;5032185;28;20115;-80
2022/01/03 00:51:30;;;;;;;196.70;70.00;;;;;;;0.53;100.00;101292.78;5031969;28;20053;-79
2022/01/03 00:53:57;;;;;;;176.32;75.45;;;;;;;0.58;100.00;101294.06;5026877;28;20042;-78
2022/01/03 00:56:28;;;;;;;229.00;83.60;;;;;;;0.49;100.00;101286.16;5031469;28;20064;-79
2022/01/03 00:59:00;;;;;;;233.98;74.95;;;;;;;0.42;100.00;101275.34;5028321;28;20494;-81
2022/01/03 01:01:29;;;;;;;136.90;56.45;;;;;;;0.42;100.00;101276.22;5030275;28;20464;-78
2022/01/03 01:03:58;;;;;;;543.85;202.63;;;;;;;0.39;100.00;101267.75;5031891;28;21518;-78
2022/01/03 01:06:26;;;;;;;885.58;307.73;;;;;;;0.40;100.00;101267.66;5030552;28;20057;-79
2022/01/03 01:08:57;;;;;;;1999.90;816.70;;;;;;;0.36;100.00;101268.00;5031409;28;20059;-80
2022/01/03 01:11:27;;;;;;;1999.90;922.58;;;;;;;0.36;100.00;101263.63;5031412;28;20115;-81
2022/01/03 01:13:56;;;;;;;1999.90;998.67;;;;;;;0.28;100.00;101254.78;5030695;28;20132;-80
2022/01/03 01:16:24;;;;;;;692.47;191.23;;;;;;;0.31;100.00;101264.97;5031969;28;20473;-80
2022/01/03 01:18:53;;;;;;;1033.93;277.30;;;;;;;0.19;100.00;101262.41;5029857;28;20453;-80
2022/01/03 01:21:20;;;;;;;469.67;120.50;;;;;;;0.16;100.00;101262.66;5029052;28;20046;-81
2022/01/03 01:23:49;;;;;;;187.77;70.47;;;;;;;0.14;100.00;101267.16;5031412;28;20045;-81
2022/01/03 01:29:04;;;;;;;234.90;65.07;;;;;;;-0.07;100.00;101250.63;5030338;28;20389;-81
2022/01/03 01:31:33;;;;;;;211.77;61.42;;;;;;;-0.13;100.00;101253.72;5030140;28;20107;-82
2022/01/03 01:34:04;;;;;;;200.90;61.65;;;;;;;-0.33;100.00;101255.34;5031791;28;20049;-81
2022/01/03 01:36:31;;;;;;;140.38;54.40;;;;;;;-0.21;100.00;101258.72;5029244;28;20598;-81
2022/01/03 01:39:02;;;;;;;137.23;53.38;;;;;;;-0.20;100.00;101245.56;5031156;28;20103;-80
2022/01/03 01:41:31;;;;;;;133.80;55.15;;;;;;;-0.13;100.00;101240.66;5018499;28;20132;-81
2022/01/03 01:44:00;;;;;;;194.60;74.45;;;;;;;-0.11;100.00;101230.94;5030281;28;20056;-80
2022/01/03 01:46:28;;;;;;;148.10;61.63;;;;;;;-0.14;100.00;101225.97;5030869;28;20126;-81
2022/01/03 01:48:55;;;;;;;134.32;54.95;;;;;;;-0.19;100.00;101218.47;5032450;28;20050;-80
2022/01/03 01:51:25;;;;;;;162.80;56.95;;;;;;;-0.21;100.00;101214.34;5033130;28;20062;-80
2022/01/03 01:53:54;;;;;;;193.88;66.03;;;;;;;-0.19;100.00;101208.03;5038367;28;20045;-80
2022/01/03 01:56:22;;;;;;;342.70;108.85;;;;;;;-0.07;100.00;101208.84;5029752;28;20053;-82
2022/01/03 01:59:13;;;;;;;469.27;160.35;;;;;;;0.01;100.00;101203.00;5035621;28;20076;-80
2022/01/03 02:01:48;;;;;;;280.77;81.15;;;;;;;-0.08;100.00;101192.34;5029210;28;20470;-79
2022/01/03 02:04:44;;;;;;;568.45;123.22;;;;;;;-0.05;100.00;101192.09;5032053;28;20057;-79
2022/01/03 02:07:52;;;;;;;386.65;106.22;;;;;;;-0.24;100.00;101197.16;5028458;28;20111;-79
2022/01/03 02:10:25;;;;;;;303.10;81.53;;;;;;;-0.22;100.00;101205.69;5029509;28;20453;-79
2022/01/03 02:12:51;;;;;;;;;;;;;;;-0.18;100.00;101201.88;5023278;28;20521;-78
2022/01/03 02:15:20;;;;;;;187.63;62.83;;;;;;;-0.14;100.00;101194.63;5034789;28;19987;-78
2022/01/03 02:17:48;;;;;;;286.00;76.05;;;;;;;-0.22;100.00;101184.78;5030183;28;20045;-78
2022/01/03 02:20:21;;;;;;;234.10;69.50;;;;;;;-0.21;100.00;101175.16;5035265;28;20490;-80
2022/01/03 02:22:49;;;;;;;261.60;80.45;;;;;;;-0.21;100.00;101170.81;5025608;28;20120;-79
2022/01/03 02:25:18;;;;;;;431.98;145.32;;;;;;;-0.24;100.00;101165.84;5035732;28;20107;-79
2022/01/03 02:27:47;;;;;;;653.28;239.00;;;;;;;-0.26;100.00;101155.50;5033916;28;20111;-79
2022/01/03 02:30:17;;;;;;;401.35;118.70;;;;;;;-0.21;100.00;101162.97;5036371;28;20105;-78
2022/01/03 02:32:46;;;;;;;271.50;83.88;;;;;;;-0.28;100.00;101143.50;5036512;28;20049;-79
2022/01/03 02:35:13;;;;;;;267.17;70.18;;;;;;;-0.42;100.00;101135.97;5033408;28;20056;-77
2022/01/03 02:37:44;;;;;;;224.23;74.03;;;;;;;-0.25;100.00;101140.66;5036333;28;20057;-77
2022/01/03 02:40:11;;;;;;;333.98;86.45;;;;;;;-0.38;100.00;101143.44;5033699;28;20057;-78
2022/01/03 02:42:39;;;;;;;251.85;78.47;;;;;;;-0.43;100.00;101137.75;5033481;28;20045;-82
2022/01/03 02:45:09;;;;;;;219.05;71.65;;;;;;;-0.53;100.00;101132.47;5030062;28;20046;-78
2022/01/03 02:47:39;;;;;;;211.52;69.20;;;;;;;-0.53;100.00;101124.63;5035949;28;20119;-78
2022/01/03 02:50:08;;;;;;;233.15;69.28;;;;;;;-0.71;100.00;101124.31;5033616;28;20513;-78
2022/01/03 02:52:35;;;;;;;394.90;87.80;;;;;;;-1.08;100.00;101121.22;5034677;28;20054;-80
2022/01/03 02:55:08;;;;;;;276.55;77.93;;;;;;;-0.89;100.00;101120.56;5027316;28;20072;-78
2022/01/03 02:57:36;;;;;;;198.32;66.10;;;;;;;-0.84;100.00;101115.84;5031716;28;20046;-80
2022/01/03 03:02:47;;;;;;;382.33;109.82;;;;;;;-0.86;100.00;101096.03;5092620;22;20068;-81
2022/01/03 03:05:14;;;;;;;284.30;92.57;;;;;;;-0.86;100.00;101089.03;5069093;28;20118;-80
2022/01/03 03:07:41;;;;;;;289.80;78.53;;;;;;;-0.95;100.00;101079.34;5070686;28;20052;-78
2022/01/03 03:10:13;;;;;;;214.90;72.25;;;;;;;-0.76;100.00;101083.91;5066446;28;20106;-79
2022/01/03 03:12:40;;;;;;;313.75;95.90;;;;;;;-0.65;100.00;101090.88;5068153;28;20465;-78
2022/01/03 03:15:09;;;;;;;281.63;77.50;;;;;;;-0.73;100.00;101071.47;5063808;28;20049;-81
2022/01/03 03:17:36;;;;;;;352.75;110.47;;;;;;;-0.84;100.00;101068.88;5071457;28;20110;-79
2022/01/03 03:20:06;;;;;;;196.13;74.93;;;;;;;-0.72;100.00;101067.06;5061779;28;20052;-78
2022/01/03 03:22:33;;;;;;;305.73;74.57;;;;;;;-0.87;100.00;101070.91;5068884;28;20053;-80
2022/01/03 03:25:02;;;;;;;267.60;77.43;;;;;;;-0.85;100.00;101072.44;5065364;28;20040;-78
2022/01/03 03:27:30;;;;;;;377.80;108.55;;;;;;;-0.75;100.00;101069.94;5064358;28;20049;-78
2022/01/03 03:29:57;;;;;;;181.38;68.00;;;;;;;-0.76;100.00;101068.25;5062889;28;20107;-80
2022/01/03 03:32:26;;;;;;;286.23;86.93;;;;;;;-0.91;100.00;101065.09;5072495;28;20110;-79
2022/01/03 03:34:53;;;;;;;434.40;112.47;;;;;;;-1.08;100.00;101063.03;5072525;28;20044;-78
2022/01/03 03:37:19;;;;;;;346.38;98.93;;;;;;;-0.92;100.00;101059.06;5062511;28;20053;-78
2022/01/03 03:39:46;;;;;;;379.40;111.78;;;;;;;-0.90;100.00;101043.28;5067145;28;20056;-78
2022/01/03 03:42:15;;;;;;;381.05;109.90;;;;;;;-0.88;100.00;101045.78;5068513;28;20072;-79
2022/01/03 03:44:46;;;;;;;276.45;88.28;;;;;;;-0.72;100.00;101054.03;5071682;28;20045;-77
2022/01/03 03:47:13;;;;;;;258.73;87.93;;;;;;;-0.72;100.00;101061.84;5074229;28;20048;-79
2022/01/03 03:49:40;;;;;;;372.02;113.68;;;;;;;-0.71;100.00;101053.88;5074289;28;20106;-79
2022/01/03 03:52:07;;;;;;;499.88;193.63;;;;;;;-0.77;100.00;101074.44;5072258;28;20125;-81
2022/01/03 03:54:35;;;;;;;493.65;189.07;;;;;;;-0.75;100.00;101068.16;5072198;28;20053;-82
2022/01/03 03:57:04;;;;;;;572.03;213.35;;;;;;;-0.96;100.00;101064.66;5072502;28;20129;-80
2022/01/03 03:59:32;;;;;;;488.10;184.15;;;;;;;-0.97;100.00;101056.00;5075024;28;20048;-78
2022/01/03 04:02:00;;;;;;;446.85;161.20;;;;;;;-0.93;100.00;101051.38;5071145;28;20044;-80
2022/01/03 04:04:33;;;;;;;383.70;116.07;;;;;;;-0.95;100.00;101048.03;5074646;28;20122;-80
2022/01/03 04:07:00;;;;;;;314.98;98.40;;;;;;;-0.99;100.00;101042.25;5075448;28;20044;-81
2022/01/03 04:09:26;;;;;;;316.17;88.20;;;;;;;-1.11;100.00;101051.06;5071090;28;20693;-79
2022/01/03 04:11:53;;;;;;;277.23;88.57;;;;;;;-0.92;100.00;101051.22;5071899;28;20048;-79
2022/01/03 04:14:20;;;;;;;251.80;83.45;;;;;;;-0.85;100.00;101040.31;5068458;28;20049;-78
2022/01/03 04:16:47;;;;;;;211.07;74.70;;;;;;;-0.82;100.00;101038.28;5071437;28;20118;-78
2022/01/03 04:19:15;;;;;;;294.10;99.13;;;;;;;-0.84;100.00;101048.00;5073181;28;20149;-80
2022/01/03 04:21:42;;;;;;;247.93;88.53;;;;;;;-0.93;100.00;101053.97;5073190;28;20052;-80
2022/01/03 04:24:11;;;;;;;223.50;77.18;;;;;;;-0.88;100.00;101049.19;5070807;28;20451;-79
2022/01/03 04:26:40;;;;;;;347.10;111.15;;;;;;;-0.80;100.00;101066.84;5074286;28;20481;-79
2022/01/03 04:29:07;;;;;;;464.95;165.35;;;;;;;-0.73;100.00;101055.81;5073432;28;20048;-81
2022/01/03 04:31:42;;;;;;;221.73;81.43;;;;;;;-0.69;100.00;101061.59;5073659;28;20048;-79
2022/01/03 04:34:09;;;;;;;222.45;86.68;;;;;;;-0.71;100.00;101053.06;5073366;28;20044;-80
2022/01/03 04:36:37;;;;;;;348.85;110.53;;;;;;;-0.81;100.00;101054.78;5071763;28;20142;-79
2022/01/03 04:39:05;;;;;;;280.35;107.78;;;;;;;-0.72;100.00;101064.47;5070458;28;20113;-81
2022/01/03 04:41:33;;;;;;;284.75;107.72;;;;;;;-0.79;100.00;101068.50;5070653;28;20103;-79
2022/01/03 04:44:01;;;;;;;268.17;100.05;;;;;;;-0.66;100.00;101035.25;5069257;28;20542;-80
2022/01/03 04:46:27;;;;;;;226.50;83.20;;;;;;;-0.61;100.00;101047.91;5067120;28;20408;-78
2022/01/03 04:49:03;;;;;;;211.45;82.82;;;;;;;-0.47;100.00;101048.44;5074032;28;20106;-79
2022/01/03 04:51:30;;;;;;;244.07;91.07;;;;;;;-0.58;100.00;101045.06;5073734;28;20397;-79
2022/01/03 04:53:58;;;;;;;394.35;100.63;;;;;;;-0.84;100.00;101055.03;5072021;28;20111;-79
2022/01/03 04:56:27;;;;;;;231.80;87.20;;;;;;;-0.60;100.00;101047.81;5068942;28;20041;-80
2022/01/03 04:58:54;;;;;;;235.95;86.82;;;;;;;-0.61;100.00;101051.34;5070311;28;20045;-79
2022/01/03 05:01:20;;;;;;;319.05;90.78;;;;;;;-0.56;100.00;101057.03;5071823;28;20125;-80
2022/01/03 05:03:47;;;;;;;280.10;94.32;;;;;;;-0.37;100.00;101072.00;5072879;28;20060;-80
2022/01/03 05:06:14;;;;;;;325.15;99.90;;;;;;;-0.33;100.00;101068.22;5073980;28;20044;-80
2022/01/03 05:08:42;;;;;;;408.85;131.05;;;;;;;-0.31;100.00;101061.06;5070377;28;20057;-79
2022/01/03 05:11:10;;;;;;;469.77;121.28;;;;;;;-0.49;100.00;101059.97;5071881;28;20387;-80
2022/01/03 05:13:37;;;;;;;296.95;92.68;;;;;;;-0.56;100.00;101066.66;5068646;28;20404;-79
2022/01/03 05:16:04;;;;;;;242.65;80.93;;;;;;;-0.47;100.00;101061.50;5072667;28;20093;-81
2022/01/03 05:18:31;;;;;;;259.00;91.70;;;;;;;-0.38;100.00;101069.53;5070852;28;20113;-84
2022/01/03 05:20:58;;;;;;;359.73;101.03;;;;;;;-0.50;100.00;101059.13;5068837;28;20533;-79
2022/01/03 05:23:25;;;;;;;248.30;89.45;;;;;;;-0.52;100.00;101058.44;5067791;28;20102;-78
2022/01/03 05:25:52;;;;;;;315.27;103.13;;;;;;;-0.43;100.00;101054.25;5069497;28;20462;-78
2022/01/03 05:28:20;;;;;;;252.23;87.95;;;;;;;-0.38;100.00;101048.66;5068618;28;20052;-79
2022/01/03 05:30:47;;;;;;;221.35;75.82;;;;;;;-0.68;100.00;101047.59;5067308;28;20158;-80
2022/01/03 05:33:14;;;;;;;181.00;68.97;;;;;;;-0.42;100.00;101048.09;5073206;28;20045;-79
2022/01/03 05:35:41;;;;;;;256.20;86.20;;;;;;;-0.37;100.00;101048.50;5067922;28;20125;-78
2022/01/03 05:38:07;;;;;;;249.05;81.63;;;;;;;-0.26;100.00;101045.03;5070019;28;20109;-79
2022/01/03 05:40:34;;;;;;;320.45;99.28;;;;;;;-0.22;100.00;101050.81;5069546;28;20080;-79
2022/01/03 05:43:01;;;;;;;316.27;112.95;;;;;;;-0.05;100.00;101056.28;5067752;28;20442;-80
2022/01/03 05:45:29;;;;;;;399.27;129.82;;;;;;;0.05;100.00;101072.00;5070230;28;20106;-81
2022/01/03 05:47:56;;;;;;;238.38;74.85;;;;;;;0.18;100.00;101075.25;5072526;28;20213;-80
2022/01/03 05:50:24;;;;;;;119.72;39.83;;;;;;;0.45;100.00;101069.47;5068224;28;20538;-79
2022/01/03 05:52:50;;;;;;;229.27;63.33;;;;;;;0.34;100.00;101063.50;5069421;28;20142;-78
2022/01/03 05:55:19;;;;;;;296.15;70.25;;;;;;;0.28;100.00;101058.81;5069815;28;20132;-79
2022/01/03 05:57:45;;;;;;;141.32;48.05;;;;;;;0.57;100.00;101064.13;5068336;28;20049;-81
2022/01/03 06:00:16;;;;;;;277.30;62.60;;;;;;;0.53;100.00;101060.13;5071422;28;20048;-80
2022/01/03 06:02:45;;;;;;;166.63;48.65;;;;;;;0.62;100.00;101049.69;5069920;28;20139;-80
2022/01/03 06:05:19;;;;;;;475.35;136.40;;;;;;;0.34;100.00;101038.19;5070494;28;20125;-78
2022/01/03 06:07:49;;;;;;;255.13;95.75;;;;;;;0.23;100.00;101036.50;5072357;28;20103;-78
2022/01/03 06:10:18;;;;;;;292.60;84.90;;;;;;;0.23;100.00;101031.25;5067250;28;20098;-79
2022/01/03 06:12:47;;;;;;;320.58;99.68;;;;;;;0.22;100.00;101031.41;5070469;28;20052;-81
2022/01/03 06:15:15;;;;;;;397.00;122.72;;;;;;;0.35;100.00;101033.78;5066310;28;20048;-79
2022/01/03 06:17:44;;;;;;;448.00;157.40;;;;;;;0.44;100.00;101035.63;5068882;28;20131;-79
2022/01/03 06:20:12;;;;;;;307.13;94.38;;;;;;;0.58;100.00;101029.22;5071568;28;20427;-78
2022/01/03 06:22:39;;;;;;;172.73;58.92;;;;;;;0.58;100.00;101031.81;5069988;28;20044;-79
2022/01/03 06:25:07;;;;;;;218.40;56.15;;;;;;;0.69;100.00;101029.91;5068927;28;20135;-77
2022/01/03 06:27:33;;;;;;;390.05;94.90;;;;;;;0.67;100.00;101028.41;5068731;28;20053;-76
2022/01/03 06:30:00;;;;;;;258.75;78.88;;;;;;;0.59;100.00;101025.63;5069766;28;20450;-80
2022/01/03 06:32:27;;;;;;;256.95;85.65;;;;;;;0.69;100.00;101018.63;5069037;28;20178;-79
2022/01/03 06:34:55;;;;;;;400.83;125.32;;;;;;;0.52;100.00;101027.13;5066959;28;20539;-80
2022/01/03 06:37:22;;;;;;;287.85;87.03;;;;;;;0.60;100.00;101022.84;5070955;28;20052;-79
2022/01/03 06:39:48;;;;;;;332.33;113.53;;;;;;;0.66;100.00;101031.97;5067442;28;20443;-79
2022/01/03 06:42:15;;;;;;;132.43;53.97;;;;;;;0.67;100.00;101031.03;5071772;28;20110;-80
2022/01/03 06:44:43;;;;;;;176.38;62.60;;;;;;;0.72;100.00;101028.81;5070454;28;20507;-79
2022/01/03 06:47:10;;;;;;;182.77;59.90;;;;;;;0.61;100.00;101023.72;5072784;28;20136;-80
2022/01/03 06:49:37;;;;;;;151.25;59.40;;;;;;;0.72;100.00;101031.41;5072071;28;20110;-80
2022/01/03 06:52:05;;;;;;;219.00;68.80;;;;;;;0.64;100.00;101032.09;5069348;28;20056;-79
2022/01/03 06:54:33;;;;;;;164.73;63.55;;;;;;;0.72;100.00;101041.88;5070804;28;20114;-78
2022/01/03 06:57:00;;;;;;;258.05;76.43;;;;;;;0.77;100.00;101042.31;5068475;28;20048;-84
2022/01/03 06:59:28;;;;;;;193.60;65.68;;;;;;;0.82;100.00;101042.75;5073107;28;20040;-79
2022/01/03 07:01:57;;;;;;;187.27;65.28;;;;;;;0.93;100.00;101043.59;5073756;28;20091;-78
2022/01/03 07:04:24;;;;;;;469.40;123.80;;;;;;;0.89;100.00;101050.88;5067790;28;20052;-78
2022/01/03 07:06:50;;;;;;;493.38;130.18;;;;;;;0.94;100.00;101038.22;5074321;28;20098;-80
2022/01/03 07:09:19;;;;;;;255.93;81.05;;;;;;;1.10;100.00;101041.13;5073280;28;20137;-79
2022/01/03 07:11:46;;;;;;;186.73;75.72;;;;;;;1.29;100.00;101036.88;5073480;28;20541;-78
2022/01/03 07:19:46;;;;;;;247.88;85.25;;;;;;;1.26;100.00;101026.69;5045289;28;20104;-78
2022/01/03 07:22:13;;;;;;;250.05;89.10;;;;;;;1.53;100.00;101013.72;5070871;28;20058;-79
2022/01/03 07:24:42;;;;;;;245.23;94.25;;;;;;;2.23;100.00;101016.00;5073943;28;20107;-78
2022/01/03 07:27:11;;;;;;;395.88;141.70;;;;;;;3.15;100.00;101017.69;5072990;28;20040;-79
2022/01/03 07:29:38;;;;;;;251.27;99.00;;;;;;;2.36;100.00;101018.28;5072214;28;20048;-79
2022/01/03 07:32:06;;;;;;;194.65;78.28;;;;;;;2.38;100.00;101013.75;5069432;28;20402;-80
2022/01/03 07:34:39;;;;;;;161.38;69.28;;;;;;;3.74;100.00;101010.94;4925524;28;20583;-78
2022/01/03 07:37:07;;;;;;;206.60;82.85;;;;;;;4.53;100.00;101003.78;5033121;28;20049;-79
2022/01/03 07:39:35;;;;;;;414.80;166.57;;;;;;;4.88;100.00;100999.28;5023286;28;20085;-80
2022/01/03 07:42:04;;;;;;;504.42;260.52;;;;;;;5.40;100.00;100999.00;5029834;28;20458;-79
2022/01/03 07:44:31;;;;;;;390.10;188.60;;;;;;;5.59;100.00;101000.47;5024145;28;20068;-79
2022/01/03 07:46:59;;;;;;;452.02;273.05;;;;;;;6.12;100.00;100994.63;5029686;28;20045;-78
2022/01/03 07:49:26;;;;;;;408.27;250.40;;;;;;;6.85;100.00;100996.09;5030925;28;20097;-78
2022/01/03 07:51:53;;;;;;;262.13;144.40;;;;;;;7.06;100.00;101000.75;5030324;28;20552;-79
2022/01/03 07:54:20;;;;;;;202.57;128.02;;;;;;;7.73;100.00;100984.16;4989835;28;20472;-80
2022/01/03 07:56:46;;;;;;;117.47;89.97;;;;;;;9.12;100.00;100993.00;5089539;28;20044;-78
2022/01/03 07:59:15;;;;;;;63.70;57.45;;;;;;;8.75;100.00;100982.66;5075352;28;20040;-79
2022/01/03 08:01:41;;;;;;;50.10;45.67;;;;;;;9.11;100.00;100972.81;5071306;28;20117;-78
2022/01/03 08:04:08;;;;;;;52.53;47.55;;;;;;;9.66;100.00;100967.75;5073050;28;20048;-79
2022/01/03 08:06:35;;;;;;;36.47;33.65;;;;;;;9.90;100.00;100945.25;5073907;28;20050;-79
2022/01/03 08:09:03;;;;;;;34.90;32.58;;;;;;;9.77;100.00;100935.41;5069577;28;20514;-79
2022/01/03 08:11:30;;;;;;;32.10;30.10;;;;;;;10.00;100.00;100940.41;5073411;28;20044;-80
2022/01/03 08:13:58;;;;;;;34.90;32.45;;;;;;;10.11;100.00;100943.53;5074677;28;20455;-78
2022/01/03 08:16:26;;;;;;;35.15;32.75;;;;;;;10.03;100.00;100934.69;5070887;28;20542;-78
2022/01/03 08:18:53;;;;;;;40.80;38.15;;;;;;;9.81;100.00;100919.91;5066877;28;20040;-78
2022/01/03 08:21:22;;;;;;;43.15;40.50;;;;;;;10.16;100.00;100920.66;5073448;28;20059;-79
2022/01/03 08:23:49;;;;;;;36.92;34.38;;;;;;;9.09;100.00;100913.06;5072614;28;20431;-78
2022/01/03 08:26:15;;;;;;;44.15;41.35;;;;;;;10.46;100.00;100915.91;5071279;28;20110;-80
2022/01/03 08:28:42;;;;;;;38.47;35.97;;;;;;;9.74;100.00;100911.91;5074281;28;20049;-80
2022/01/03 08:31:11;;;;;;;41.90;38.83;;;;;;;9.43;100.00;100914.97;5071439;28;20507;-79
2022/01/03 08:33:40;;;;;;;44.45;41.53;;;;;;;9.77;100.00;100906.22;5067820;28;20628;-81
2022/01/03 08:36:08;;;;;;;43.63;40.70;;;;;;;9.34;100.00;100908.97;5073960;28;20107;-79
2022/01/03 08:38:35;;;;;;;43.45;40.67;;;;;;;10.11;100.00;100922.31;5074224;28;20045;-78
2022/01/03 08:41:02;;;;;;;41.30;38.75;;;;;;;10.28;100.00;100913.81;5073480;28;20334;-80
2022/01/03 08:43:28;;;;;;;45.50;42.70;;;;;;;10.27;100.00;100917.47;5072268;28;20121;-78
2022/01/03 08:45:55;;;;;;;41.53;38.92;;;;;;;9.81;100.00;100923.38;5071900;28;21676;-80
2022/01/03 08:48:22;;;;;;;46.90;44.05;;;;;;;10.53;100.00;100927.38;5068432;28;20480;-79
2022/01/03 08:50:50;;;;;;;44.53;41.85;;;;;;;9.89;100.00;100910.94;5068017;28;20134;-78
2022/01/03 08:53:17;;;;;;;45.35;42.67;;;;;;;9.74;100.00;100909.25;5069550;28;20060;-80
2022/01/03 08:55:44;;;;;;;47.72;44.83;;;;;;;10.37;100.00;100905.66;5071894;28;20040;-79
2022/01/03 08:58:12;;;;;;;50.75;47.70;;;;;;;10.64;100.00;100891.44;5073362;28;20060;-80
2022/01/03 09:00:39;;;;;;;50.13;47.00;;;;;;;9.75;100.00;100886.22;5072643;28;20408;-81
2022/01/03 09:03:06;;;;;;;49.30;46.50;;;;;;;10.71;100.00;100886.97;5072741;28;20045;-79
2022/01/03 09:05:33;;;;;;;44.47;41.50;;;;;;;10.38;100.00;100881.59;5072882;28;20051;-80
2022/01/03 09:08:01;;;;;;;45.28;42.42;;;;;;;9.70;100.00;100878.00;5073254;28;20129;-78
2022/01/03 09:10:28;;;;;;;48.38;45.67;;;;;;;10.42;100.00;100872.19;5072763;28;20048;-78
2022/01/03 09:12:55;;;;;;;47.75;44.63;;;;;;;10.39;100.00;100871.78;5073342;28;20052;-78
2022/01/03 09:15:22;;;;;;;46.63;44.13;;;;;;;10.92;100.00;100879.81;5072602;28;20048;-78
2022/01/03 09:17:49;;;;;;;40.40;38.10;;;;;;;10.95;100.00;100882.91;5071770;28;20135;-76
2022/01/03 09:20:17;;;;;;;43.47;40.90;;;;;;;11.21;100.00;100874.06;5070861;28;20451;-78
2022/01/03 09:22:47;;;;;;;45.33;42.72;;;;;;;10.46;100.00;100880.56;5068599;28;20060;-80
2022/01/03 09:30:44;;;;;;;42.03;39.65;;;;;;;9.80;100.00;100865.19;5071656;28;20051;-78
2022/01/03 09:33:12;;;;;;;48.42;44.97;;;;;;;9.33;100.00;100856.19;5074039;28;20044;-79
2022/01/03 09:35:40;;;;;;;51.97;48.88;;;;;;;9.49;100.00;100858.50;5067068;28;20048;-79
2022/01/03 09:38:07;;;;;;;43.97;41.28;;;;;;;10.22;100.00;100856.16;5067017;28;20105;-79
2022/01/03 09:40:36;;;;;;;42.53;39.88;;;;;;;10.04;100.00;100845.28;5067497;28;20056;-80
2022/01/03 09:43:03;;;;;;;48.03;44.90;;;;;;;10.04;100.00;100839.97;5067426;28;20404;-78
2022/01/03 09:45:33;;;;;;;44.78;42.10;;;;;;;9.25;100.00;100830.63;5069284;28;20044;-79
2022/01/03 09:48:02;;;;;;;46.35;43.58;;;;;;;9.46;100.00;100823.63;5068957;28;20045;-78
2022/01/03 09:50:33;;;;;;;53.92;50.42;;;;;;;9.10;100.00;100829.91;5067066;28;20056;-80
2022/01/03 09:53:02;;;;;;;49.03;45.95;;;;;;;9.49;100.00;100823.22;5070022;28;20052;-79
2022/01/03 09:55:31;;;;;;;53.60;50.47;;;;;;;9.32;100.00;100820.06;5071917;28;20045;-78
2022/01/03 09:57:59;;;;;;;49.25;46.25;;;;;;;9.77;100.00;100818.69;5067380;28;20491;-80
2022/01/03 10:00:27;;;;;;;46.25;43.58;;;;;;;9.55;100.00;100814.50;5067821;28;20045;-78
2022/01/03 10:02:55;;;;;;;47.00;44.08;;;;;;;9.70;100.00;100825.78;5071309;28;20059;-78
2022/01/03 10:05:22;;;;;;;46.35;43.35;;;;;;;10.07;100.00;100828.97;5071218;28;20049;-79
2022/01/03 10:07:50;;;;;;;47.95;44.95;;;;;;;9.51;100.00;100824.69;5070568;28;20130;-79
2022/01/03 10:10:17;;;;;;;48.03;45.08;;;;;;;9.71;100.00;100824.75;5072113;28;20036;-78
2022/01/03 10:12:44;;;;;;;46.47;43.63;;;;;;;10.12;100.00;100813.28;5068209;28;20123;-79
2022/01/03 10:15:13;;;;;;;50.28;47.33;;;;;;;9.75;100.00;100807.44;5072672;28;20478;-78
2022/01/03 10:17:42;;;;;;;47.20;44.28;;;;;;;9.49;100.00;100796.72;5069941;28;20076;-81
2022/01/03 10:20:10;;;;;;;47.03;44.22;;;;;;;10.68;100.00;100807.69;5071627;28;20059;-79
2022/01/03 10:22:39;;;;;;;47.65;44.63;;;;;;;10.37;100.00;100802.13;5072421;28;20435;-82
2022/01/03 10:25:13;;;;;;;48.15;45.20;;;;;;;10.48;100.00;100802.34;5071208;28;20044;-79
2022/01/03 10:27:51;;;;;;;49.25;46.53;;;;;;;10.90;100.00;100797.66;5049345;28;20442;-80
2022/01/03 10:30:35;;;;;;;49.80;46.88;;;;;;;9.62;100.00;100779.03;5071654;28;20052;-79
2022/01/03 10:33:03;;;;;;;50.53;47.42;;;;;;;9.81;100.00;100780.13;5074180;28;20041;-79
2022/01/03 10:35:37;;;;;;;50.75;47.85;;;;;;;9.83;100.00;100786.06;5073936;28;20114;-80
2022/01/03 10:38:04;;;;;;;55.67;52.40;;;;;;;9.96;100.00;100787.13;5073724;28;20044;-78
2022/01/03 10:40:31;;;;;;;50.00;47.00;;;;;;;10.39;100.00;100779.66;5073897;28;20056;-78
2022/01/03 10:43:13;;;;;;;46.88;44.17;;;;;;;9.72;100.00;100775.19;5075209;28;20037;-79
2022/01/03 10:45:42;;;;;;;50.17;46.92;;;;;;;12.26;100.00;100783.47;5070586;28;20094;-79
2022/01/03 10:48:27;;;;;;;43.63;41.05;;;;;;;11.23;100.00;100778.16;5075879;28;20045;-79
2022/01/03 10:50:56;;;;;;;46.22;43.30;;;;;;;10.93;100.00;100757.38;5075247;28;20072;-77
2022/01/03 10:53:33;;;;;;;47.65;44.78;;;;;;;11.21;100.00;100758.94;5073639;28;20048;-77
2022/01/03 10:56:00;;;;;;;54.70;51.63;;;;;;;11.66;100.00;100759.00;5073579;28;20045;-79
2022/01/03 10:58:33;;;;;;;47.38;44.17;;;;;;;11.19;100.00;100761.78;5070897;28;20098;-79
2022/01/03 11:01:02;;;;;;;44.65;41.85;;;;;;;12.42;100.00;100762.66;5072766;28;20548;-79
2022/01/03 11:03:32;;;;;;;49.25;45.92;;;;;;;11.65;100.00;100750.19;5070060;28;20079;-78
2022/01/03 11:06:13;;;;;;;44.53;41.83;;;;;;;10.41;100.00;100737.81;5074296;28;20132;-76
2022/01/03 11:11:35;;;;;;;47.38;44.30;;;;;;;12.48;100.00;100729.81;5067664;28;20121;-78
2022/01/03 11:14:02;;;;;;;46.80;44.20;;;;;;;12.74;100.00;100724.25;5069056;28;20044;-78
2022/01/03 11:16:34;;;;;;;49.38;46.47;;;;;;;13.17;100.00;100734.06;5074020;28;20121;-78
2022/01/03 11:19:00;;;;;;;46.92;44.15;;;;;;;13.02;100.00;100725.63;5073910;28;20386;-79
2022/01/03 11:21:29;;;;;;;45.75;43.17;;;;;;;13.23;100.00;100719.03;5071550;28;20056;-80
2022/01/03 11:24:05;;;;;;;46.30;43.60;;;;;;;12.35;100.00;100718.25;5072836;28;20091;-79
2022/01/03 11:26:34;;;;;;;47.13;44.10;;;;;;;13.52;100.00;100720.94;5068433;28;20098;-78